Time;durP1;ratioP1;P1;durP2;ratioP2;P2;SDS_P1;SDS_P2;PMS_P1;PMS_P2;Temp;Humidity;BMP_temperature;BMP_pressure;BME280_temperature;BME280_humidity;BME280_pressure;Samples;Min_cycle;Max_cycle;Signal;HPM_P1;HPM_P2
2022/11/06 00:00:15;;;;;;;;;;;;;;;4.55;93.79;97286.13;30001;983;1876;-60
2022/11/06 00:00:46;;;;;;;;;;;;;;;4.54;94.11;97281.00;30001;983;1880;-60
2022/11/06 00:01:17;;;;;;;;;;;;;;;4.53;94.00;97274.78;30001;983;1885;-60
2022/11/06 00:01:48;;;;;;;;;;;;;;;4.53;94.20;97277.50;30001;962;1812;-60
2022/11/06 00:02:19;;;;;;;;;;;;;;;4.56;93.90;97266.25;30001;983;1885;-60
2022/11/06 00:02:55;;;;;;;;;;;;;;;4.58;93.76;97274.06;30001;983;1880;-60
2022/11/06 00:03:26;;;;;;;;;;;;;;;4.57;93.32;97270.56;30001;982;1885;-60
2022/11/06 00:03:58;;;;;;;;;;;;;;;4.59;93.10;97270.31;30001;982;1881;-60
2022/11/06 00:04:29;;;;;;;;;;;;;;;4.58;93.56;97269.50;30001;982;1872;-59
2022/11/06 00:06:46;;;;;;;;;;;;;;;4.59;93.31;97264.94;30001;982;1872;-60
2022/11/06 00:06:48;;;;;;;;;;;;;;;4.57;93.22;97265.19;30001;983;1880;-64
2022/11/06 00:07:19;;;;;;;;;;;;;;;4.58;93.29;97264.13;30001;983;1884;-59
2022/11/06 00:07:50;;;;;;;;;;;;;;;4.59;93.28;97263.06;30001;983;1881;-68
2022/11/06 00:08:26;;;;;;;;;;;;;;;4.60;92.98;97269.25;30001;983;1871;-66
2022/11/06 00:08:58;;;;;;;;;;;;;;;4.58;93.04;97264.13;30001;983;1871;-60
2022/11/06 00:09:28;;;;;;;;;;;;;;;4.57;92.92;97259.81;30001;983;1885;-66
2022/11/06 00:09:59;;;;;;;;;;;;;;;4.55;93.07;97256.56;30001;983;1881;-66
2022/11/06 00:10:30;;;;;;;;;;;;;;;4.54;93.29;97257.63;30001;983;1885;-59
2022/11/06 00:11:07;;;;;;;;;;;;;;;4.54;93.19;97263.00;30001;982;1881;-61
2022/11/06 00:11:42;;;;;;;;;;;;;;;4.51;93.10;97263.47;30001;982;1885;-60
2022/11/06 00:12:12;;;;;;;;;;;;;;;4.49;93.36;97257.56;30001;982;1881;-66
2022/11/06 00:12:44;;;;;;;;;;;;;;;4.51;93.48;97263.47;30001;982;1885;-67
2022/11/06 00:13:14;;;;;;;;;;;;;;;4.52;93.27;97257.03;30001;982;1881;-60
2022/11/06 00:13:46;;;;;;;;;;;;;;;4.53;93.34;97266.75;30001;983;1871;-68
2022/11/06 00:14:17;;;;;;;;;;;;;;;4.52;93.35;97259.72;30001;983;1858;-68
2022/11/06 00:14:49;;;;;;;;;;;;;;;4.53;93.11;97263.22;30001;983;1884;-69
2022/11/06 00:15:20;;;;;;;;;;;;;;;4.50;92.42;97256.50;30001;983;1880;-68
2022/11/06 00:15:51;;;;;;;;;;;;;;;4.50;92.50;97266.44;30001;983;1885;-68
2022/11/06 00:16:22;;;;;;;;;;;;;;;4.49;92.72;97254.88;30001;983;1880;-65
2022/11/06 00:16:57;;;;;;;;;;;;;;;4.48;92.47;97258.63;30001;983;1872;-67
2022/11/06 00:17:27;;;;;;;;;;;;;;;4.47;92.83;97257.00;30001;983;1872;-67
2022/11/06 00:17:58;;;;;;;;;;;;;;;4.48;92.51;97252.44;30001;983;1885;-60
2022/11/06 00:18:29;;;;;;;;;;;;;;;4.46;92.52;97255.38;30001;982;1881;-59
2022/11/06 00:19:01;;;;;;;;;;;;;;;4.47;92.84;97257.00;30001;982;1885;-61
2022/11/06 00:19:32;;;;;;;;;;;;;;;4.48;92.84;97257.81;30001;982;1868;-60
2022/11/06 00:20:05;;;;;;;;;;;;;;;4.47;92.74;97256.19;30001;982;1876;-60
2022/11/06 00:20:36;;;;;;;;;;;;;;;4.45;92.59;97248.38;30001;982;1881;-59
2022/11/06 00:21:11;;;;;;;;;;;;;;;4.46;92.44;97250.00;30001;983;1884;-69
2022/11/06 00:21:43;;;;;;;;;;;;;;;4.47;92.80;97251.63;30001;983;1880;-60
2022/11/06 00:22:17;;;;;;;;;;;;;;;4.47;92.62;97248.94;30001;983;1884;-60
2022/11/06 00:22:48;;;;;;;;;;;;;;;4.47;92.61;97245.44;30001;983;1880;-59
2022/11/06 00:23:19;;;;;;;;;;;;;;;4.45;92.76;97243.00;30001;983;1885;-60
2022/11/06 00:23:52;;;;;;;;;;;;;;;4.44;92.54;97249.41;30001;983;1880;-67
2022/11/06 00:24:23;;;;;;;;;;;;;;;4.45;92.59;97245.66;30001;983;1885;-66
2022/11/06 00:24:54;;;;;;;;;;;;;;;4.44;92.32;97251.28;30001;983;1867;-59
2022/11/06 00:25:25;;;;;;;;;;;;;;;4.44;92.54;97238.66;30001;983;1876;-60
2022/11/06 00:25:56;;;;;;;;;;;;;;;4.48;92.46;97242.50;30001;982;1881;-60
2022/11/06 00:26:28;;;;;;;;;;;;;;;4.50;91.87;97240.38;30001;982;1885;-67
2022/11/06 00:26:59;;;;;;;;;;;;;;;4.49;91.56;97238.75;30001;982;1868;-63
2022/11/06 00:27:30;;;;;;;;;;;;;;;4.49;91.63;97241.44;30001;982;1876;-61
2022/11/06 00:28:01;;;;;;;;;;;;;;;4.46;91.75;97239.25;30001;982;1881;-61
2022/11/06 00:28:32;;;;;;;;;;;;;;;4.44;92.06;97238.66;30001;983;1884;-61
2022/11/06 00:29:03;;;;;;;;;;;;;;;4.42;92.03;97237.28;30001;983;1880;-61
2022/11/06 00:29:34;;;;;;;;;;;;;;;4.40;91.79;97240.22;30001;983;1871;-60
2022/11/06 00:30:07;;;;;;;;;;;;;;;4.41;91.90;97241.03;30001;983;1871;-67
2022/11/06 00:30:38;;;;;;;;;;;;;;;4.40;91.89;97240.22;30001;983;1884;-65
2022/11/06 00:31:12;;;;;;;;;;;;;;;4.44;91.84;97245.91;30001;983;1880;-69
2022/11/06 00:31:44;;;;;;;;;;;;;;;4.44;91.75;97252.09;30001;983;1872;-67
2022/11/06 00:32:15;;;;;;;;;;;;;;;4.46;91.70;97254.56;30001;983;1872;-68
2022/11/06 00:32:46;;;;;;;;;;;;;;;4.45;91.70;97253.72;30001;983;1885;-70
2022/11/06 00:33:17;;;;;;;;;;;;;;;4.42;91.90;97259.59;30001;983;1880;-59
2022/11/06 00:33:48;;;;;;;;;;;;;;;4.40;91.99;97259.03;30001;982;1857;-67
2022/11/06 00:34:19;;;;;;;;;;;;;;;4.37;91.81;97256.81;30001;982;1881;-70
2022/11/06 00:34:53;;;;;;;;;;;;;;;4.33;92.16;97266.41;30001;962;1817;-70
2022/11/06 00:35:25;;;;;;;;;;;;;;;4.30;92.13;97261.53;30001;982;1881;-60
2022/11/06 00:35:56;;;;;;;;;;;;;;;4.28;92.27;97269.03;30001;983;1871;-61
2022/11/06 00:36:29;;;;;;;;;;;;;;;4.28;92.90;97261.78;30001;983;1871;-61
2022/11/06 00:37:00;;;;;;;;;;;;;;;4.31;92.66;97271.22;30001;983;1884;-60
2022/11/06 00:37:32;;;;;;;;;;;;;;;4.31;92.22;97269.34;30001;983;1800;-60
2022/11/06 00:38:03;;;;;;;;;;;;;;;4.32;92.43;97262.09;30001;983;1885;-61
2022/11/06 00:38:34;;;;;;;;;;;;;;;4.32;92.30;97262.09;30001;983;1880;-60
2022/11/06 00:39:06;;;;;;;;;;;;;;;4.31;92.24;97268.53;30001;983;1885;-68
2022/11/06 00:39:37;;;;;;;;;;;;;;;4.28;92.41;97279.78;30001;983;1867;-60
2022/11/06 00:40:08;;;;;;;;;;;;;;;4.27;92.57;97272.75;30001;982;1876;-61
2022/11/06 00:40:39;;;;;;;;;;;;;;;4.25;92.38;97266.81;30001;982;1881;-60
2022/11/06 00:41:11;;;;;;;;;;;;;;;4.22;92.88;97273.50;30001;982;1885;-59
2022/11/06 00:41:42;;;;;;;;;;;;;;;4.18;93.05;97274.22;30001;982;1881;-60
2022/11/06 00:42:13;;;;;;;;;;;;;;;4.17;93.16;97277.97;30001;982;1885;-60
2022/11/06 00:42:44;;;;;;;;;;;;;;;4.16;93.07;97271.78;30001;982;1881;-67
2022/11/06 00:43:19;;;;;;;;;;;;;;;4.16;93.04;97268.31;30001;982;1885;-59
2022/11/06 00:43:53;;;;;;;;;;;;;;;4.18;93.48;97269.66;30001;983;1880;-60
2022/11/06 00:44:23;;;;;;;;;;;;;;;4.19;93.28;97273.16;30001;983;1871;-68
2022/11/06 00:44:54;;;;;;;;;;;;;;;4.18;92.88;97268.84;30001;983;1871;-60
2022/11/06 00:45:25;;;;;;;;;;;;;;;4.16;93.32;97269.09;30001;983;1871;-60
2022/11/06 00:46:00;;;;;;;;;;;;;;;4.16;93.04;97277.12;30001;983;1871;-60
2022/11/06 00:46:31;;;;;;;;;;;;;;;4.15;93.35;97269.34;30001;983;1885;-65
2022/11/06 00:47:02;;;;;;;;;;;;;;;4.15;93.36;97269.34;30001;983;1880;-60
2022/11/06 00:47:33;;;;;;;;;;;;;;;4.14;93.44;97267.72;30001;983;1885;-65
2022/11/06 00:48:04;;;;;;;;;;;;;;;4.14;93.34;97273.09;30001;982;1881;-65
2022/11/06 00:48:36;;;;;;;;;;;;;;;4.14;93.51;97262.34;30001;982;1885;-67
2022/11/06 00:49:07;;;;;;;;;;;;;;;4.14;93.56;97263.16;30001;982;1881;-67
2022/11/06 00:49:38;;;;;;;;;;;;;;;4.15;93.24;97270.16;30001;982;1885;-59
2022/11/06 00:50:09;;;;;;;;;;;;;;;4.14;93.21;97265.84;30001;982;1881;-59
2022/11/06 00:50:40;;;;;;;;;;;;;;;4.15;93.51;97270.16;30001;982;1872;-60
2022/11/06 00:51:15;;;;;;;;;;;;;;;4.15;93.33;97274.72;30001;983;1871;-59
2022/11/06 00:51:46;;;;;;;;;;;;;;;4.14;93.28;97273.91;30001;983;1884;-60
2022/11/06 00:52:18;;;;;;;;;;;;;;;4.12;93.41;97270.66;30001;983;1880;-66
2022/11/06 00:52:49;;;;;;;;;;;;;;;4.11;93.47;97270.91;30001;985;1894;-60
2022/11/06 00:53:20;;;;;;;;;;;;;;;4.12;93.72;97275.22;30001;983;1880;-67
2022/11/06 00:54:01;;;;;;;;;;;;;;;4.10;93.84;97274.63;30001;983;1885;-66
2022/11/06 00:54:32;;;;;;;;;;;;;;;4.10;93.91;97280.00;30001;983;1880;-61
2022/11/06 00:55:03;;;;;;;;;;;;;;;4.08;93.92;97274.06;30001;983;1885;-65
2022/11/06 00:55:34;;;;;;;;;;;;;;;4.06;94.05;97274.31;30001;982;1881;-66
2022/11/06 00:56:07;;;;;;;;;;;;;;;4.06;93.97;97277.00;30001;982;1872;-60
2022/11/06 00:56:38;;;;;;;;;;;;;;;4.07;94.75;97283.16;30001;982;1872;-59
2022/11/06 00:57:09;;;;;;;;;;;;;;;4.05;94.99;97275.34;30001;982;1885;-66
2022/11/06 00:57:40;;;;;;;;;;;;;;;4.04;95.07;97274.53;30001;982;1786;-58
2022/11/06 00:58:12;;;;;;;;;;;;;;;4.04;95.37;97279.91;30001;983;1884;-67
2022/11/06 00:58:44;;;;;;;;;;;;;;;4.02;95.25;97276.66;30001;983;1880;-63
2022/11/06 00:59:16;;;;;;;;;;;;;;;4.02;95.67;97275.84;30001;983;1884;-65
2022/11/06 00:59:47;;;;;;;;;;;;;;;4.01;95.92;97280.41;30001;983;1880;-59
2022/11/06 01:00:19;;;;;;;;;;;;;;;4.01;95.82;97275.03;30001;983;1795;-66
2022/11/06 01:00:50;;;;;;;;;;;;;;;4.01;95.74;97280.41;30001;983;1880;-67
2022/11/06 01:01:25;;;;;;;;;;;;;;;4.02;95.80;97281.22;30001;983;1872;-67
2022/11/06 01:01:55;;;;;;;;;;;;;;;4.01;95.74;97272.34;30001;983;1872;-63
2022/11/06 01:02:28;;;;;;;;;;;;;;;4.02;95.76;97268.59;30001;983;1885;-60
2022/11/06 01:02:59;;;;;;;;;;;;;;;4.04;95.96;97274.53;30001;982;1881;-64
2022/11/06 01:03:30;;;;;;;;;;;;;;;4.08;95.82;97272.19;30001;982;1885;-65
2022/11/06 01:04:05;;;;;;;;;;;;;;;4.07;95.57;97267.06;30001;982;1881;-64
2022/11/06 01:04:36;;;;;;;;;;;;;;;4.08;95.66;97268.69;30001;982;1885;-59
2022/11/06 01:05:08;;;;;;;;;;;;;;;4.08;95.87;97269.50;30001;982;1881;-59
2022/11/06 01:05:40;;;;;;;;;;;;;;;4.07;95.67;97267.06;30001;983;1884;-59
2022/11/06 01:06:16;;;;;;;;;;;;;;;4.06;95.63;97266.25;30001;983;1880;-60
2022/11/06 01:06:49;;;;;;;;;;;;;;;4.04;95.59;97263.81;30001;983;1871;-66
2022/11/06 01:07:23;;;;;;;;;;;;;;;4.02;95.57;97265.91;30001;983;1871;-59
2022/11/06 01:07:54;;;;;;;;;;;;;;;4.00;95.72;97262.66;30001;983;1885;-64
2022/11/06 01:08:25;;;;;;;;;;;;;;;3.99;95.88;97269.06;30001;983;1880;-59
2022/11/06 01:08:56;;;;;;;;;;;;;;;4.00;95.87;97264.53;30001;983;1885;-66
2022/11/06 01:09:27;;;;;;;;;;;;;;;3.98;95.64;97264.75;30001;983;1880;-59
2022/11/06 01:09:59;;;;;;;;;;;;;;;3.98;95.81;97264.75;30001;983;1885;-67
2022/11/06 01:10:30;;;;;;;;;;;;;;;3.98;95.83;97263.94;30001;982;1881;-65
2022/11/06 01:11:05;;;;;;;;;;;;;;;3.98;95.87;97258.56;30001;982;1885;-60
2022/11/06 01:11:40;;;;;;;;;;;;;;;3.97;95.92;97257.75;30001;982;1881;-59
2022/11/06 01:12:11;;;;;;;;;;;;;;;3.98;96.06;97258.56;30001;982;1872;-66
2022/11/06 01:12:42;;;;;;;;;;;;;;;3.98;96.06;97259.41;30001;982;1872;-67
2022/11/06 01:13:16;;;;;;;;;;;;;;;3.98;96.43;97266.63;30001;983;1884;-59
2022/11/06 01:13:48;;;;;;;;;;;;;;;3.98;96.28;97259.41;30001;983;1880;-65
2022/11/06 01:14:22;;;;;;;;;;;;;;;3.98;96.27;97264.75;30001;983;1885;-58
2022/11/06 01:14:57;;;;;;;;;;;;;;;3.97;96.26;97263.13;30001;983;1880;-66
2022/11/06 01:15:28;;;;;;;;;;;;;;;3.99;96.49;97266.38;30001;983;1885;-60
2022/11/06 01:15:59;;;;;;;;;;;;;;;3.98;96.48;97267.44;30001;983;1880;-66
2022/11/06 01:16:30;;;;;;;;;;;;;;;4.00;96.23;97272.56;30001;983;1885;-60
2022/11/06 01:17:02;;;;;;;;;;;;;;;4.00;96.46;97259.97;30001;983;1880;-59
2022/11/06 01:17:33;;;;;;;;;;;;;;;3.99;96.40;97261.03;30001;983;1872;-64
2022/11/06 01:18:04;;;;;;;;;;;;;;;3.98;96.29;97259.41;30001;982;1872;-67
2022/11/06 01:18:36;;;;;;;;;;;;;;;3.98;96.24;97263.94;30001;982;1885;-60
2022/11/06 01:19:07;;;;;;;;;;;;;;;3.98;96.37;97259.41;30001;982;1881;-59
2022/11/06 01:19:38;;;;;;;;;;;;;;;3.99;96.57;97258.34;30001;982;1885;-60
2022/11/06 01:20:09;;;;;;;;;;;;;;;3.99;96.58;97265.56;30001;982;1881;-66
2022/11/06 01:20:40;;;;;;;;;;;;;;;3.99;96.42;97261.03;30001;983;1884;-59
2022/11/06 01:21:16;;;;;;;;;;;;;;;3.99;96.35;97266.38;30001;983;1880;-59
2022/11/06 01:21:48;;;;;;;;;;;;;;;3.98;96.22;97259.41;30001;983;1884;-67
2022/11/06 01:22:18;;;;;;;;;;;;;;;3.99;96.43;97261.03;30001;983;1880;-59
2022/11/06 01:22:49;;;;;;;;;;;;;;;4.00;96.12;97262.66;30001;983;1871;-67
2022/11/06 01:23:20;;;;;;;;;;;;;;;4.01;96.14;97264.28;30001;983;1872;-68
2022/11/06 01:23:55;;;;;;;;;;;;;;;4.03;96.21;97264.84;30001;983;1885;-66
2022/11/06 01:24:27;;;;;;;;;;;;;;;4.02;95.96;97260.53;30001;983;1880;-66
2022/11/06 01:24:58;;;;;;;;;;;;;;;4.04;95.73;97263.81;30001;983;1885;-60
2022/11/06 01:25:29;;;;;;;;;;;;;;;4.04;95.84;97263.81;30001;982;1881;-65
2022/11/06 01:26:01;;;;;;;;;;;;;;;4.07;95.69;97261.69;30001;982;1885;-59
2022/11/06 01:26:33;;;;;;;;;;;;;;;4.08;95.62;97258.75;30001;982;1881;-66
2022/11/06 01:27:07;;;;;;;;;;;;;;;4.08;95.61;97263.31;30001;982;1885;-59
2022/11/06 01:27:38;;;;;;;;;;;;;;;4.09;95.67;97264.94;30001;982;1881;-59
2022/11/06 01:28:09;;;;;;;;;;;;;;;4.09;95.36;97264.94;30001;983;1791;-59
2022/11/06 01:28:41;;;;;;;;;;;;;;;4.09;95.65;97259.56;30001;983;1871;-59
2022/11/06 01:29:13;;;;;;;;;;;;;;;4.09;95.34;97256.91;30001;983;1884;-67
2022/11/06 01:29:44;;;;;;;;;;;;;;;4.09;95.27;97259.56;30001;983;1880;-65
2022/11/06 01:30:15;;;;;;;;;;;;;;;4.10;95.37;97261.22;30001;983;1871;-59
2022/11/06 01:30:46;;;;;;;;;;;;;;;4.10;95.16;97258.53;30001;983;1872;-68
2022/11/06 01:32:27;;;;;;;;;;;;;;;4.11;94.91;97258.28;89987;930;17000;-65
2022/11/06 01:32:58;;;;;;;;;;;;;;;4.10;94.74;97256.66;30001;982;1868;-60
2022/11/06 01:33:29;;;;;;;;;;;;;;;4.09;94.89;97256.91;30001;982;1868;-69
2022/11/06 01:34:01;;;;;;;;;;;;;;;4.09;94.67;97259.56;30001;982;1881;-66
2022/11/06 01:34:31;;;;;;;;;;;;;;;4.08;94.50;97255.25;30001;982;1877;-60
2022/11/06 01:35:03;;;;;;;;;;;;;;;4.10;94.42;97261.22;30001;983;1880;-60
2022/11/06 01:35:34;;;;;;;;;;;;;;;4.09;94.91;97270.31;30001;983;1863;-59
2022/11/06 01:36:07;;;;;;;;;;;;;;;4.09;94.81;97270.31;30001;983;1858;-60
2022/11/06 01:36:39;;;;;;;;;;;;;;;4.09;94.59;97264.94;30001;983;1876;-60
2022/11/06 01:37:10;;;;;;;;;;;;;;;4.08;94.99;97264.13;30001;983;1880;-59
2022/11/06 01:37:41;;;;;;;;;;;;;;;4.08;94.78;97266.00;30001;983;1876;-65
2022/11/06 01:38:12;;;;;;;;;;;;;;;4.06;94.85;97262.75;30001;983;1880;-60
2022/11/06 01:38:45;;;;;;;;;;;;;;;4.06;95.20;97265.44;30001;983;1876;-59
2022/11/06 01:39:17;;;;;;;;;;;;;;;4.06;94.90;97260.06;30001;983;1881;-60
2022/11/06 01:39:49;;;;;;;;;;;;;;;4.05;94.91;97264.63;30001;982;1877;-60
2022/11/06 01:40:20;;;;;;;;;;;;;;;4.06;95.27;97260.06;30001;982;1868;-66
2022/11/06 01:40:51;;;;;;;;;;;;;;;4.04;95.10;97269.16;30001;982;1868;-59
2022/11/06 01:41:24;;;;;;;;;;;;;;;4.04;94.92;97269.16;30001;982;1881;-59
2022/11/06 01:41:54;;;;;;;;;;;;;;;4.04;94.97;97263.81;30001;982;1877;-65
2022/11/06 01:42:27;;;;;;;;;;;;;;;4.04;94.96;97269.16;30001;983;1880;-65
2022/11/06 01:42:58;;;;;;;;;;;;;;;4.06;95.41;97265.44;30001;983;1876;-63
2022/11/06 01:43:46;;;;;;;;;;;;;;;4.07;95.11;97269.75;30001;983;1880;-60
2022/11/06 01:44:52;;;;;;;;;;;;;;;4.04;94.72;97263.81;30001;983;1876;-59
2022/11/06 01:45:32;;;;;;;;;;;;;;;4.04;95.11;97263.81;30001;983;1863;-67
2022/11/06 01:46:03;;;;;;;;;;;;;;;4.08;95.09;97268.69;30001;983;1868;-59
2022/11/06 01:46:35;;;;;;;;;;;;;;;4.09;94.68;97259.56;30001;982;1881;-63
2022/11/06 01:47:35;;;;;;;;;;;;;;;4.08;94.78;97260.62;30001;982;1876;-66
2022/11/06 01:48:06;;;;;;;;;;;;;;;4.07;94.66;97262.50;30001;986;1877;-59
2022/11/06 01:48:38;;;;;;;;;;;;;;;4.08;94.64;97252.56;30001;982;1877;-66
2022/11/06 01:49:11;;;;;;;;;;;;;;;4.09;94.42;97259.56;30001;982;1881;-60
2022/11/06 01:49:44;;;;;;;;;;;;;;;4.09;94.62;97260.38;30001;982;1877;-59
2022/11/06 01:50:16;;;;;;;;;;;;;;;4.09;93.95;97254.22;30001;983;1880;-65
2022/11/06 01:50:48;;;;;;;;;;;;;;;4.11;94.18;97262.84;30001;983;1863;-60
2022/11/06 01:51:22;;;;;;;;;;;;;;;4.11;94.18;97265.53;30001;983;1871;-59
2022/11/06 01:51:58;;;;;;;;;;;;;;;4.08;94.18;97248.03;30001;983;1863;-59
2022/11/06 01:52:31;;;;;;;;;;;;;;;4.09;94.28;97259.56;30001;983;1859;-60
2022/11/06 01:53:03;;;;;;;;;;;;;;;4.09;94.21;97254.22;30001;983;1876;-66
2022/11/06 01:53:34;;;;;;;;;;;;;;;4.11;94.08;97258.28;30001;983;1881;-60
2022/11/06 01:54:06;;;;;;;;;;;;;;;4.10;94.28;97251.28;30001;982;1876;-60
2022/11/06 01:54:39;;;;;;;;;;;;;;;4.11;93.84;97252.91;30001;982;1881;-61
2022/11/06 01:55:24;;;;;;;;;;;;;;;4.11;93.86;97258.28;30001;982;1877;-61
2022/11/06 01:55:58;;;;;;;;;;;;;;;4.10;93.56;97251.28;30001;982;1868;-60
2022/11/06 01:56:30;;;;;;;;;;;;;;;4.10;93.57;97255.84;30001;982;1868;-59
2022/11/06 01:57:03;;;;;;;;;;;;;;;4.09;93.53;97256.91;30001;982;1881;-60
2022/11/06 01:57:34;;;;;;;;;;;;;;;4.07;93.42;97253.62;30001;983;1876;-60
2022/11/06 01:58:08;;;;;;;;;;;;;;;4.08;93.54;97252.56;30001;983;1867;-66
2022/11/06 01:58:40;;;;;;;;;;;;;;;4.07;93.62;97256.31;30001;983;1867;-60
2022/11/06 01:59:14;;;;;;;;;;;;;;;4.07;93.43;97253.62;30001;983;1880;-68
2022/11/06 01:59:45;;;;;;;;;;;;;;;4.07;93.22;97250.94;30001;983;1876;-68
2022/11/06 02:00:18;;;;;;;;;;;;;;;4.09;93.11;97251.53;30001;983;1880;-61
2022/11/06 02:00:53;;;;;;;;;;;;;;;4.10;93.09;97247.78;30001;983;1863;-61
2022/11/06 02:01:24;;;;;;;;;;;;;;;4.12;93.13;97248.34;30001;983;1872;-67
2022/11/06 02:01:55;;;;;;;;;;;;;;;4.11;92.99;97246.72;30001;982;1876;-65
2022/11/06 02:02:26;;;;;;;;;;;;;;;4.09;93.01;97248.84;30001;982;1881;-68
2022/11/06 02:02:58;;;;;;;;;;;;;;;4.08;93.10;97252.56;30001;982;1876;-69
2022/11/06 02:03:29;;;;;;;;;;;;;;;4.09;93.22;97251.53;30001;982;1881;-61
2022/11/06 02:04:21;;;;;;;;;;;;;;;4.07;92.61;97245.56;30001;982;1877;-60
2022/11/06 02:04:52;;;;;;;;;;;;;;;4.04;92.56;97253.06;30001;983;1880;-61
2022/11/06 02:05:23;;;;;;;;;;;;;;;4.03;92.76;97253.31;30001;983;1876;-60
2022/11/06 02:05:55;;;;;;;;;;;;;;;4.02;92.75;97259.72;30001;983;1867;-60
2022/11/06 02:06:27;;;;;;;;;;;;;;;4.02;92.98;97249.81;30001;983;1838;-60
2022/11/06 02:07:00;;;;;;;;;;;;;;;4.02;92.82;97255.16;30001;983;1880;-61
2022/11/06 02:07:32;;;;;;;;;;;;;;;4.02;92.65;97246.31;30001;983;1876;-61
2022/11/06 02:08:04;;;;;;;;;;;;;;;4.00;92.56;97243.84;30001;983;1881;-68
2022/11/06 02:08:35;;;;;;;;;;;;;;;4.01;92.78;97245.50;30001;983;1876;-60
2022/11/06 02:09:11;;;;;;;;;;;;;;;3.99;92.55;97239.53;30001;982;1880;-61
2022/11/06 02:09:42;;;;;;;;;;;;;;;4.00;92.79;97248.41;30001;982;1876;-69
2022/11/06 02:10:12;;;;;;;;;;;;;;;3.98;92.63;97245.16;30001;982;1881;-61
2022/11/06 02:10:44;;;;;;;;;;;;;;;3.97;92.87;97248.91;30001;982;1863;-60
2022/11/06 02:11:16;;;;;;;;;;;;;;;3.95;92.64;97241.09;30001;982;1872;-61
2022/11/06 02:11:58;;;;;;;;;;;;;;;3.95;92.79;97248.31;30001;982;1877;-60
2022/11/06 02:12:52;;;;;;;;;;;;;;;3.94;93.03;97246.69;30001;983;1880;-60
2022/11/06 02:13:52;;;;;;;;;;;;;;;3.94;93.38;97247.50;30001;983;1863;-69
2022/11/06 02:15:00;;;;;;;;;;;;;;;3.92;92.81;97249.63;30001;983;1867;-60
2022/11/06 02:15:44;;;;;;;;;;;;;;;3.88;93.08;97248.47;30001;983;1872;-67
2022/11/06 02:16:37;;;;;;;;;;;;;;;3.88;93.23;97250.34;30001;983;1881;-60
2022/11/06 02:17:14;;;;;;;;;;;;;;;3.85;93.36;97243.56;30001;982;1859;-61
2022/11/06 02:18:03;;;;;;;;;;;;;;;3.85;93.02;97248.94;30001;982;1872;-60
2022/11/06 02:18:52;;;;;;;;;;;;;;;3.86;93.65;97245.22;30001;982;1868;-60
2022/11/06 02:19:49;;;;;;;;;;;;;;;3.87;93.68;97251.38;30001;983;1876;-61
2022/11/06 02:20:42;;;;;;;;;;;;;;;3.86;93.46;97245.22;30001;983;1872;-67
2022/11/06 02:21:33;;;;;;;;;;;;;;;3.88;93.25;97248.47;30001;983;1876;-62
2022/11/06 02:22:24;;;;;;;;;;;;;;;3.91;92.84;97247.97;30001;962;1879;-70
2022/11/06 02:23:20;;;;;;;;;;;;;;;3.93;92.54;97245.06;30001;983;1850;-61
2022/11/06 02:24:09;;;;;;;;;;;;;;;3.95;91.96;97243.75;30001;983;1872;-67
2022/11/06 02:24:58;;;;;;;;;;;;;;;3.94;91.62;97242.13;30001;982;1872;-60
2022/11/06 02:26:00;;;;;;;;;;;;;;;3.94;91.57;97242.13;30001;982;1877;-70
2022/11/06 02:26:40;;;;;;;;;;;;;;;3.91;91.73;97242.63;30001;982;1863;-67
2022/11/06 02:27:13;;;;;;;;;;;;;;;3.90;91.82;97246.34;30001;983;1863;-61
2022/11/06 02:27:50;;;;;;;;;;;;;;;3.90;91.78;97235.63;30001;983;1880;-62
2022/11/06 02:28:27;;;;;;;;;;;;;;;3.90;91.76;97238.31;30001;983;1876;-61
2022/11/06 02:29:09;;;;;;;;;;;;;;;3.88;91.29;97237.72;30001;983;1880;-61
2022/11/06 02:29:45;;;;;;;;;;;;;;;3.87;91.32;97228.03;30001;983;1863;-67
2022/11/06 02:30:17;;;;;;;;;;;;;;;3.85;91.18;97232.84;30001;983;1872;-61
2022/11/06 02:30:48;;;;;;;;;;;;;;;3.85;91.54;97232.03;30001;983;1876;-67
2022/11/06 02:31:23;;;;;;;;;;;;;;;3.83;91.68;97234.94;30001;983;1880;-67
2022/11/06 02:31:57;;;;;;;;;;;;;;;3.80;91.89;97230.09;30001;982;1876;-67
2022/11/06 02:32:34;;;;;;;;;;;;;;;3.77;91.89;97230.56;30001;982;1881;-60
2022/11/06 02:33:08;;;;;;;;;;;;;;;3.75;92.21;97232.69;30001;982;1876;-69
2022/11/06 02:33:43;;;;;;;;;;;;;;;3.73;92.18;97226.72;30001;982;1880;-69
2022/11/06 02:34:16;;;;;;;;;;;;;;;3.74;92.31;97225.69;30001;983;1876;-62
2022/11/06 02:34:50;;;;;;;;;;;;;;;3.76;92.27;97222.75;30001;983;1867;-69
2022/11/06 02:35:36;;;;;;;;;;;;;;;3.75;92.23;97221.94;30001;983;1867;-70
2022/11/06 02:36:09;;;;;;;;;;;;;;;3.75;92.03;97221.94;30001;983;1880;-70
2022/11/06 02:36:46;;;;;;;;;;;;;;;3.75;91.97;97221.94;30001;983;1876;-60
2022/11/06 02:37:18;;;;;;;;;;;;;;;3.75;91.82;97219.25;30001;983;1881;-69
2022/11/06 02:37:52;;;;;;;;;;;;;;;3.75;91.83;97221.13;30001;983;1876;-61
2022/11/06 02:38:31;;;;;;;;;;;;;;;3.76;91.45;97223.56;30001;983;1880;-62
2022/11/06 02:39:05;;;;;;;;;;;;;;;3.73;91.28;97218.69;30001;984;1868;-61
2022/11/06 02:39:40;;;;;;;;;;;;;;;3.73;91.33;97223.25;30001;982;1868;-61
2022/11/06 02:40:12;;;;;;;;;;;;;;;3.68;91.35;97210.53;30001;982;1868;-61
2022/11/06 02:40:46;;;;;;;;;;;;;;;3.66;91.45;97220.69;30001;982;1881;-61
2022/11/06 02:41:22;;;;;;;;;;;;;;;3.65;91.51;97219.06;30001;982;1864;-60
2022/11/06 02:41:54;;;;;;;;;;;;;;;3.63;91.68;97218.50;30001;966;1880;-61
2022/11/06 02:42:27;;;;;;;;;;;;;;;3.62;91.80;97216.88;30001;983;1876;-61
2022/11/06 02:43:00;;;;;;;;;;;;;;;3.61;92.09;97215.22;30001;983;1880;-67
2022/11/06 02:43:44;;;;;;;;;;;;;;;3.60;92.01;97216.28;30001;983;1876;-61
2022/11/06 02:44:17;;;;;;;;;;;;;;;3.60;92.27;97213.59;30001;983;1880;-60
2022/11/06 02:44:50;;;;;;;;;;;;;;;3.59;92.31;97214.66;30001;983;1876;-62
2022/11/06 02:45:27;;;;;;;;;;;;;;;3.60;92.38;97213.59;30001;983;1880;-61
2022/11/06 02:46:02;;;;;;;;;;;;;;;3.60;92.40;97213.59;30001;983;1876;-62
2022/11/06 02:46:41;;;;;;;;;;;;;;;3.62;91.90;97211.50;30001;983;1881;-61
2022/11/06 02:47:14;;;;;;;;;;;;;;;3.64;91.74;97212.06;30001;982;1863;-66
2022/11/06 02:47:46;;;;;;;;;;;;;;;3.63;91.66;97208.56;30001;982;1872;-62
2022/11/06 02:48:20;;;;;;;;;;;;;;;3.66;91.74;97204.59;30001;982;1876;-61
2022/11/06 02:48:55;;;;;;;;;;;;;;;3.66;91.49;97212.66;30001;982;1881;-61
2022/11/06 02:49:37;;;;;;;;;;;;;;;3.65;91.42;97211.00;30001;983;1876;-61
2022/11/06 02:50:11;;;;;;;;;;;;;;;3.63;91.60;97197.03;30001;983;1880;-67
2022/11/06 02:50:45;;;;;;;;;;;;;;;3.66;91.81;97201.91;30001;983;1876;-61
2022/11/06 02:51:17;;;;;;;;;;;;;;;3.65;91.63;97201.09;30001;983;1880;-68
2022/11/06 02:51:50;;;;;;;;;;;;;;;3.66;91.53;97196.53;30001;983;1876;-61
2022/11/06 02:52:28;;;;;;;;;;;;;;;3.65;91.31;97190.38;30001;983;1867;-71
2022/11/06 02:53:03;;;;;;;;;;;;;;;3.67;91.39;97198.19;30001;986;1859;-69
2022/11/06 02:53:36;;;;;;;;;;;;;;;3.68;91.42;97189.06;30001;982;1881;-61
2022/11/06 02:54:09;;;;;;;;;;;;;;;3.65;91.26;97189.53;30001;982;1863;-61
2022/11/06 02:54:42;;;;;;;;;;;;;;;3.65;91.23;97192.22;30001;982;1872;-61
2022/11/06 02:55:16;;;;;;;;;;;;;;;3.63;91.25;97188.97;30001;982;1877;-60
2022/11/06 02:55:48;;;;;;;;;;;;;;;3.61;91.38;97185.72;30001;982;1881;-68
2022/11/06 02:56:23;;;;;;;;;;;;;;;3.60;91.36;97189.44;30001;982;1877;-60
2022/11/06 02:56:57;;;;;;;;;;;;;;;3.59;91.33;97185.97;30001;983;1880;-61
2022/11/06 02:57:31;;;;;;;;;;;;;;;3.55;91.43;97178.63;30001;983;1862;-61
2022/11/06 02:58:22;;;;;;;;;;;;;;;3.54;91.51;97183.19;30001;983;1872;-68
2022/11/06 02:59:01;;;;;;;;;;;;;;;3.54;91.67;97179.69;30001;983;1863;-68
2022/11/06 02:59:39;;;;;;;;;;;;;;;3.56;91.57;97173.03;30001;983;1872;-61
2022/11/06 03:00:11;;;;;;;;;;;;;;;3.56;91.57;97174.88;30001;983;1876;-60
2022/11/06 03:00:46;;;;;;;;;;;;;;;3.57;91.71;97176.53;30001;983;1880;-69
2022/11/06 03:01:26;;;;;;;;;;;;;;;3.57;91.87;97173.84;30001;982;1876;-68
2022/11/06 03:01:59;;;;;;;;;;;;;;;3.59;91.50;97177.91;30001;982;1881;-61
2022/11/06 03:02:35;;;;;;;;;;;;;;;3.61;91.55;97174.97;30001;982;1877;-69
2022/11/06 03:03:17;;;;;;;;;;;;;;;3.61;91.37;97177.66;30001;982;1881;-62
2022/11/06 03:03:52;;;;;;;;;;;;;;;3.62;91.51;97168.56;30001;982;1877;-70
2022/11/06 03:04:43;;;;;;;;;;;;;;;3.60;91.45;97171.50;30001;982;1868;-60
2022/11/06 03:05:18;;;;;;;;;;;;;;;3.55;91.48;97173.25;30001;983;1867;-60
2022/11/06 03:06:07;;;;;;;;;;;;;;;3.52;91.46;97168.38;30001;983;1880;-70
2022/11/06 03:06:41;;;;;;;;;;;;;;;3.51;91.78;97172.13;30001;983;1867;-61
2022/11/06 03:07:21;;;;;;;;;;;;;;;3.50;91.83;97163.25;30001;983;1881;-61